sensor_id;sensor_type;location;lat;lon;timestamp;P1;durP1;ratioP1;P2;durP2;ratioP2
43519;SDS011;46848;51.980;5.918;2024-03-02T00:02:14;5.73;;;1.77;;
43519;SDS011;46848;51.980;5.918;2024-03-02T00:04:39;2.30;;;1.20;;
43519;SDS011;46848;51.980;5.918;2024-03-02T00:07:06;2.27;;;1.10;;
43519;SDS011;46848;51.980;5.918;2024-03-02T00:09:31;2.80;;;1.27;;
43519;SDS011;46848;51.980;5.918;2024-03-02T00:11:58;3.50;;;1.40;;
43519;SDS011;46848;51.980;5.918;2024-03-02T00:14:25;2.50;;;0.93;;
43519;SDS011;46848;51.980;5.918;2024-03-02T00:16:51;2.30;;;1.00;;
43519;SDS011;46848;51.980;5.918;2024-03-02T00:19:18;3.53;;;1.17;;
43519;SDS011;46848;51.980;5.918;2024-03-02T00:21:43;3.33;;;1.10;;
43519;SDS011;46848;51.980;5.918;2024-03-02T00:24:21;2.50;;;1.10;;
43519;SDS011;46848;51.980;5.918;2024-03-02T00:26:49;3.03;;;1.17;;
43519;SDS011;46848;51.980;5.918;2024-03-02T00:29:17;4.67;;;1.20;;
43519;SDS011;46848;51.980;5.918;2024-03-02T00:31:45;2.67;;;1.17;;
43519;SDS011;46848;51.980;5.918;2024-03-02T00:34:11;2.57;;;1.20;;
43519;SDS011;46848;51.980;5.918;2024-03-02T00:36:41;2.83;;;1.27;;
43519;SDS011;46848;51.980;5.918;2024-03-02T00:39:07;3.00;;;1.17;;
43519;SDS011;46848;51.980;5.918;2024-03-02T00:41:33;3.10;;;1.20;;
43519;SDS011;46848;51.980;5.918;2024-03-02T00:44:01;3.17;;;1.37;;
43519;SDS011;46848;51.980;5.918;2024-03-02T00:46:41;2.40;;;1.07;;
43519;SDS011;46848;51.980;5.918;2024-03-02T00:49:21;3.17;;;1.27;;
43519;SDS011;46848;51.980;5.918;2024-03-02T00:51:48;3.00;;;1.63;;
43519;SDS011;46848;51.980;5.918;2024-03-02T00:54:15;4.07;;;1.07;;
43519;SDS011;46848;51.980;5.918;2024-03-02T00:56:44;2.47;;;0.90;;
43519;SDS011;46848;51.980;5.918;2024-03-02T00:59:10;4.13;;;1.10;;
43519;SDS011;46848;51.980;5.918;2024-03-02T01:01:36;3.17;;;1.10;;
43519;SDS011;46848;51.980;5.918;2024-03-02T01:04:02;3.43;;;1.10;;
43519;SDS011;46848;51.980;5.918;2024-03-02T01:06:28;3.53;;;1.20;;
43519;SDS011;46848;51.980;5.918;2024-03-02T01:08:54;2.10;;;0.90;;
43519;SDS011;46848;51.980;5.918;2024-03-02T01:11:19;3.30;;;1.20;;
43519;SDS011;46848;51.980;5.918;2024-03-02T01:13:48;3.13;;;1.20;;
43519;SDS011;46848;51.980;5.918;2024-03-02T01:16:14;2.73;;;1.10;;
43519;SDS011;46848;51.980;5.918;2024-03-02T01:18:41;4.17;;;1.10;;
43519;SDS011;46848;51.980;5.918;2024-03-02T01:21:07;5.17;;;1.53;;
43519;SDS011;46848;51.980;5.918;2024-03-02T01:23:32;3.53;;;0.90;;
43519;SDS011;46848;51.980;5.918;2024-03-02T01:25:58;1.47;;;0.70;;
43519;SDS011;46848;51.980;5.918;2024-03-02T01:28:24;2.70;;;0.90;;
43519;SDS011;46848;51.980;5.918;2024-03-02T01:30:49;2.27;;;0.67;;
43519;SDS011;46848;51.980;5.918;2024-03-02T01:33:15;1.40;;;0.60;;
43519;SDS011;46848;51.980;5.918;2024-03-02T01:35:42;3.67;;;0.67;;
43519;SDS011;46848;51.980;5.918;2024-03-02T01:38:07;2.27;;;0.77;;
43519;SDS011;46848;51.980;5.918;2024-03-02T01:40:36;3.77;;;1.00;;
43519;SDS011;46848;51.980;5.918;2024-03-02T01:43:03;0.97;;;0.50;;
43519;SDS011;46848;51.980;5.918;2024-03-02T01:45:29;1.80;;;0.60;;
43519;SDS011;46848;51.980;5.918;2024-03-02T01:47:55;1.30;;;0.40;;
43519;SDS011;46848;51.980;5.918;2024-03-02T01:50:25;1.63;;;0.53;;
43519;SDS011;46848;51.980;5.918;2024-03-02T01:52:51;1.43;;;0.50;;
43519;SDS011;46848;51.980;5.918;2024-03-02T01:55:17;2.17;;;0.40;;
43519;SDS011;46848;51.980;5.918;2024-03-02T01:57:43;2.20;;;0.50;;
43519;SDS011;46848;51.980;5.918;2024-03-02T02:00:10;0.83;;;0.20;;
43519;SDS011;46848;51.980;5.918;2024-03-02T02:02:36;0.77;;;0.40;;
43519;SDS011;46848;51.980;5.918;2024-03-02T02:05:02;0.50;;;0.30;;
43519;SDS011;46848;51.980;5.918;2024-03-02T02:07:29;1.50;;;0.40;;
43519;SDS011;46848;51.980;5.918;2024-03-02T02:09:54;1.50;;;0.60;;
43519;SDS011;46848;51.980;5.918;2024-03-02T02:12:20;0.63;;;0.20;;
43519;SDS011;46848;51.980;5.918;2024-03-02T02:14:49;1.00;;;0.30;;
43519;SDS011;46848;51.980;5.918;2024-03-02T02:17:18;0.50;;;0.20;;
43519;SDS011;46848;51.980;5.918;2024-03-02T02:19:43;0.30;;;0.13;;
43519;SDS011;46848;51.980;5.918;2024-03-02T02:22:12;0.87;;;0.33;;
43519;SDS011;46848;51.980;5.918;2024-03-02T02:24:41;0.57;;;0.20;;
43519;SDS011;46848;51.980;5.918;2024-03-02T02:27:07;2.23;;;0.40;;
43519;SDS011;46848;51.980;5.918;2024-03-02T02:29:33;0.40;;;0.20;;
43519;SDS011;46848;51.980;5.918;2024-03-02T02:31:59;0.47;;;0.10;;
43519;SDS011;46848;51.980;5.918;2024-03-02T02:34:24;1.33;;;0.20;;
43519;SDS011;46848;51.980;5.918;2024-03-02T02:36:50;0.70;;;0.27;;
43519;SDS011;46848;51.980;5.918;2024-03-02T02:39:16;0.80;;;0.30;;
43519;SDS011;46848;51.980;5.918;2024-03-02T02:41:44;1.50;;;0.40;;
43519;SDS011;46848;51.980;5.918;2024-03-02T02:44:10;1.20;;;0.30;;
43519;SDS011;46848;51.980;5.918;2024-03-02T02:46:39;0.80;;;0.13;;
43519;SDS011;46848;51.980;5.918;2024-03-02T02:49:06;0.20;;;0.13;;
43519;SDS011;46848;51.980;5.918;2024-03-02T02:51:31;0.30;;;0.10;;
43519;SDS011;46848;51.980;5.918;2024-03-02T02:53:57;0.13;;;0.10;;
43519;SDS011;46848;51.980;5.918;2024-03-02T02:56:23;0.80;;;0.20;;
43519;SDS011;46848;51.980;5.918;2024-03-02T02:58:48;0.60;;;0.13;;
43519;SDS011;46848;51.980;5.918;2024-03-02T03:01:17;0.60;;;0.20;;
43519;SDS011;46848;51.980;5.918;2024-03-02T03:03:45;0.40;;;0.20;;
43519;SDS011;46848;51.980;5.918;2024-03-02T03:06:11;0.73;;;0.13;;
43519;SDS011;46848;51.980;5.918;2024-03-02T03:08:37;0.90;;;0.10;;
43519;SDS011;46848;51.980;5.918;2024-03-02T03:11:03;0.93;;;0.20;;
43519;SDS011;46848;51.980;5.918;2024-03-02T03:13:29;0.60;;;0.20;;
43519;SDS011;46848;51.980;5.918;2024-03-02T03:15:56;0.80;;;0.23;;
43519;SDS011;46848;51.980;5.918;2024-03-02T03:18:21;1.73;;;0.30;;
43519;SDS011;46848;51.980;5.918;2024-03-02T03:20:47;0.90;;;0.10;;
43519;SDS011;46848;51.980;5.918;2024-03-02T03:23:12;0.30;;;0.17;;
43519;SDS011;46848;51.980;5.918;2024-03-02T03:25:41;0.20;;;0.10;;
43519;SDS011;46848;51.980;5.918;2024-03-02T03:28:07;0.83;;;0.10;;
43519;SDS011;46848;51.980;5.918;2024-03-02T03:30:34;0.47;;;0.10;;
43519;SDS011;46848;51.980;5.918;2024-03-02T03:33:04;1.40;;;0.23;;
43519;SDS011;46848;51.980;5.918;2024-03-02T03:35:32;0.60;;;0.27;;
43519;SDS011;46848;51.980;5.918;2024-03-02T03:37:58;0.83;;;0.20;;
43519;SDS011;46848;51.980;5.918;2024-03-02T03:40:24;0.57;;;0.10;;
43519;SDS011;46848;51.980;5.918;2024-03-02T03:42:49;0.70;;;0.20;;
43519;SDS011;46848;51.980;5.918;2024-03-02T03:45:15;1.20;;;0.10;;
43519;SDS011;46848;51.980;5.918;2024-03-02T03:47:41;0.20;;;0.10;;
43519;SDS011;46848;51.980;5.918;2024-03-02T03:50:07;0.43;;;0.17;;
43519;SDS011;46848;51.980;5.918;2024-03-02T03:52:32;2.23;;;0.30;;
43519;SDS011;46848;51.980;5.918;2024-03-02T03:54:58;0.40;;;0.20;;
43519;SDS011;46848;51.980;5.918;2024-03-02T03:57:25;0.57;;;0.13;;
43519;SDS011;46848;51.980;5.918;2024-03-02T03:59:51;1.33;;;0.20;;
43519;SDS011;46848;51.980;5.918;2024-03-02T04:02:17;1.03;;;0.20;;
43519;SDS011;46848;51.980;5.918;2024-03-02T04:04:43;0.83;;;0.20;;
43519;SDS011;46848;51.980;5.918;2024-03-02T04:07:08;0.23;;;0.13;;
43519;SDS011;46848;51.980;5.918;2024-03-02T04:09:34;0.87;;;0.30;;
43519;SDS011;46848;51.980;5.918;2024-03-02T04:11:59;0.57;;;0.40;;
43519;SDS011;46848;51.980;5.918;2024-03-02T04:14:25;1.13;;;0.40;;
43519;SDS011;46848;51.980;5.918;2024-03-02T04:16:51;0.43;;;0.10;;
43519;SDS011;46848;51.980;5.918;2024-03-02T04:19:16;0.23;;;0.10;;
43519;SDS011;46848;51.980;5.918;2024-03-02T04:21:42;0.97;;;0.00;;
43519;SDS011;46848;51.980;5.918;2024-03-02T04:24:07;0.83;;;0.20;;
43519;SDS011;46848;51.980;5.918;2024-03-02T04:26:33;0.53;;;0.20;;
43519;SDS011;46848;51.980;5.918;2024-03-02T04:28:58;0.63;;;0.20;;
43519;SDS011;46848;51.980;5.918;2024-03-02T04:31:24;0.30;;;0.10;;
43519;SDS011;46848;51.980;5.918;2024-03-02T04:33:50;1.03;;;0.10;;
43519;SDS011;46848;51.980;5.918;2024-03-02T04:36:15;0.20;;;0.10;;
43519;SDS011;46848;51.980;5.918;2024-03-02T04:38:41;0.73;;;0.30;;
43519;SDS011;46848;51.980;5.918;2024-03-02T04:41:06;0.40;;;0.10;;
43519;SDS011;46848;51.980;5.918;2024-03-02T04:43:32;1.00;;;0.20;;
43519;SDS011;46848;51.980;5.918;2024-03-02T04:45:59;0.60;;;0.20;;
43519;SDS011;46848;51.980;5.918;2024-03-02T04:48:25;2.00;;;0.23;;
43519;SDS011;46848;51.980;5.918;2024-03-02T04:50:50;0.40;;;0.23;;
43519;SDS011;46848;51.980;5.918;2024-03-02T04:53:16;0.47;;;0.13;;
43519;SDS011;46848;51.980;5.918;2024-03-02T04:55:42;0.57;;;0.20;;
43519;SDS011;46848;51.980;5.918;2024-03-02T04:58:07;0.40;;;0.20;;
43519;SDS011;46848;51.980;5.918;2024-03-02T05:00:33;1.23;;;0.50;;
43519;SDS011;46848;51.980;5.918;2024-03-02T05:03:00;1.57;;;0.30;;
43519;SDS011;46848;51.980;5.918;2024-03-02T05:05:26;1.17;;;0.20;;
43519;SDS011;46848;51.980;5.918;2024-03-02T05:07:51;1.87;;;0.30;;
43519;SDS011;46848;51.980;5.918;2024-03-02T05:10:17;1.20;;;0.20;;
43519;SDS011;46848;51.980;5.918;2024-03-02T05:12:43;0.63;;;0.20;;
43519;SDS011;46848;51.980;5.918;2024-03-02T05:15:09;1.77;;;0.30;;
43519;SDS011;46848;51.980;5.918;2024-03-02T05:17:35;0.50;;;0.20;;
43519;SDS011;46848;51.980;5.918;2024-03-02T05:20:02;0.87;;;0.20;;
43519;SDS011;46848;51.980;5.918;2024-03-02T05:22:33;2.13;;;0.37;;
43519;SDS011;46848;51.980;5.918;2024-03-02T05:24:59;0.20;;;0.10;;
43519;SDS011;46848;51.980;5.918;2024-03-02T05:27:25;1.40;;;0.20;;
43519;SDS011;46848;51.980;5.918;2024-03-02T05:29:51;1.53;;;0.37;;
43519;SDS011;46848;51.980;5.918;2024-03-02T05:32:17;0.53;;;0.20;;
43519;SDS011;46848;51.980;5.918;2024-03-02T05:34:43;0.90;;;0.20;;
43519;SDS011;46848;51.980;5.918;2024-03-02T05:37:08;0.83;;;0.40;;
43519;SDS011;46848;51.980;5.918;2024-03-02T05:39:34;0.67;;;0.20;;
43519;SDS011;46848;51.980;5.918;2024-03-02T05:41:59;0.77;;;0.30;;
43519;SDS011;46848;51.980;5.918;2024-03-02T05:44:25;0.87;;;0.47;;
43519;SDS011;46848;51.980;5.918;2024-03-02T05:46:50;0.87;;;0.30;;
43519;SDS011;46848;51.980;5.918;2024-03-02T05:49:16;1.27;;;0.13;;
43519;SDS011;46848;51.980;5.918;2024-03-02T05:51:41;0.60;;;0.13;;
43519;SDS011;46848;51.980;5.918;2024-03-02T05:54:07;0.80;;;0.17;;
43519;SDS011;46848;51.980;5.918;2024-03-02T05:56:33;1.80;;;0.30;;
43519;SDS011;46848;51.980;5.918;2024-03-02T05:58:58;0.73;;;0.20;;
43519;SDS011;46848;51.980;5.918;2024-03-02T06:01:42;0.30;;;0.20;;
43519;SDS011;46848;51.980;5.918;2024-03-02T06:04:09;0.77;;;0.17;;
43519;SDS011;46848;51.980;5.918;2024-03-02T06:06:39;1.33;;;0.20;;
43519;SDS011;46848;51.980;5.918;2024-03-02T06:09:05;1.30;;;0.20;;
43519;SDS011;46848;51.980;5.918;2024-03-02T06:11:34;1.07;;;0.30;;
43519;SDS011;46848;51.980;5.918;2024-03-02T06:14:01;1.23;;;0.40;;
43519;SDS011;46848;51.980;5.918;2024-03-02T06:16:27;1.13;;;0.30;;
43519;SDS011;46848;51.980;5.918;2024-03-02T06:18:52;1.00;;;0.30;;
43519;SDS011;46848;51.980;5.918;2024-03-02T06:21:19;1.13;;;0.20;;
43519;SDS011;46848;51.980;5.918;2024-03-02T06:23:45;1.60;;;0.30;;
43519;SDS011;46848;51.980;5.918;2024-03-02T06:26:11;3.17;;;0.40;;
43519;SDS011;46848;51.980;5.918;2024-03-02T06:28:37;1.53;;;0.50;;
43519;SDS011;46848;51.980;5.918;2024-03-02T06:31:03;1.07;;;0.30;;
43519;SDS011;46848;51.980;5.918;2024-03-02T06:33:29;2.40;;;0.40;;
43519;SDS011;46848;51.980;5.918;2024-03-02T06:35:54;0.73;;;0.30;;
43519;SDS011;46848;51.980;5.918;2024-03-02T06:38:20;1.17;;;0.30;;
43519;SDS011;46848;51.980;5.918;2024-03-02T06:40:45;0.93;;;0.20;;
43519;SDS011;46848;51.980;5.918;2024-03-02T06:43:11;1.20;;;0.30;;
43519;SDS011;46848;51.980;5.918;2024-03-02T06:45:37;2.07;;;0.50;;
43519;SDS011;46848;51.980;5.918;2024-03-02T06:48:03;1.40;;;0.37;;
43519;SDS011;46848;51.980;5.918;2024-03-02T06:50:28;0.97;;;0.10;;
43519;SDS011;46848;51.980;5.918;2024-03-02T06:52:54;1.63;;;0.30;;
43519;SDS011;46848;51.980;5.918;2024-03-02T06:55:21;1.40;;;0.37;;
43519;SDS011;46848;51.980;5.918;2024-03-02T06:57:47;0.70;;;0.20;;
43519;SDS011;46848;51.980;5.918;2024-03-02T07:00:12;0.97;;;0.20;;
43519;SDS011;46848;51.980;5.918;2024-03-02T07:02:39;4.43;;;0.30;;
43519;SDS011;46848;51.980;5.918;2024-03-02T07:05:06;1.10;;;0.20;;
43519;SDS011;46848;51.980;5.918;2024-03-02T07:07:33;1.23;;;0.30;;
43519;SDS011;46848;51.980;5.918;2024-03-02T07:10:00;1.30;;;0.30;;
43519;SDS011;46848;51.980;5.918;2024-03-02T07:12:25;0.43;;;0.20;;
43519;SDS011;46848;51.980;5.918;2024-03-02T07:14:51;0.80;;;0.30;;
43519;SDS011;46848;51.980;5.918;2024-03-02T07:17:29;1.07;;;0.37;;
43519;SDS011;46848;51.980;5.918;2024-03-02T07:19:55;1.60;;;0.40;;
43519;SDS011;46848;51.980;5.918;2024-03-02T07:22:21;1.40;;;0.50;;
43519;SDS011;46848;51.980;5.918;2024-03-02T07:24:47;2.83;;;0.47;;
43519;SDS011;46848;51.980;5.918;2024-03-02T07:27:14;1.40;;;0.40;;
43519;SDS011;46848;51.980;5.918;2024-03-02T07:29:40;1.10;;;0.33;;
43519;SDS011;46848;51.980;5.918;2024-03-02T07:32:07;0.80;;;0.50;;
43519;SDS011;46848;51.980;5.918;2024-03-02T07:34:33;2.30;;;0.37;;
43519;SDS011;46848;51.980;5.918;2024-03-02T07:36:59;2.23;;;0.30;;
43519;SDS011;46848;51.980;5.918;2024-03-02T07:39:25;5.40;;;0.60;;
43519;SDS011;46848;51.980;5.918;2024-03-02T07:41:51;2.90;;;0.68;;
43519;SDS011;46848;51.980;5.918;2024-03-02T07:44:16;1.48;;;0.50;;
43519;SDS011;46848;51.980;5.918;2024-03-02T07:46:44;3.53;;;0.70;;
43519;SDS011;46848;51.980;5.918;2024-03-02T07:49:15;2.00;;;0.50;;
43519;SDS011;46848;51.980;5.918;2024-03-02T07:51:41;1.88;;;0.35;;
43519;SDS011;46848;51.980;5.918;2024-03-02T07:54:07;2.17;;;0.50;;
43519;SDS011;46848;51.980;5.918;2024-03-02T07:56:32;1.45;;;0.55;;
43519;SDS011;46848;51.980;5.918;2024-03-02T07:58:58;0.93;;;0.55;;
43519;SDS011;46848;51.980;5.918;2024-03-02T08:01:32;1.33;;;0.50;;
43519;SDS011;46848;51.980;5.918;2024-03-02T08:03:58;1.15;;;0.40;;
43519;SDS011;46848;51.980;5.918;2024-03-02T08:06:25;0.93;;;0.40;;
43519;SDS011;46848;51.980;5.918;2024-03-02T08:08:53;1.33;;;0.32;;
43519;SDS011;46848;51.980;5.918;2024-03-02T08:11:26;2.20;;;0.40;;
43519;SDS011;46848;51.980;5.918;2024-03-02T08:13:52;2.03;;;0.50;;
43519;SDS011;46848;51.980;5.918;2024-03-02T08:16:20;2.40;;;0.85;;
43519;SDS011;46848;51.980;5.918;2024-03-02T08:18:48;2.40;;;0.70;;
43519;SDS011;46848;51.980;5.918;2024-03-02T08:21:14;0.90;;;0.30;;
43519;SDS011;46848;51.980;5.918;2024-03-02T08:23:40;2.97;;;0.85;;
43519;SDS011;46848;51.980;5.918;2024-03-02T08:26:07;1.40;;;0.40;;
43519;SDS011;46848;51.980;5.918;2024-03-02T08:28:33;1.92;;;0.40;;
43519;SDS011;46848;51.980;5.918;2024-03-02T08:30:59;3.88;;;0.43;;
43519;SDS011;46848;51.980;5.918;2024-03-02T08:33:25;2.55;;;0.50;;
43519;SDS011;46848;51.980;5.918;2024-03-02T08:35:50;2.60;;;0.55;;
43519;SDS011;46848;51.980;5.918;2024-03-02T08:38:16;2.65;;;0.70;;
43519;SDS011;46848;51.980;5.918;2024-03-02T08:40:42;2.03;;;0.50;;
43519;SDS011;46848;51.980;5.918;2024-03-02T08:43:08;2.58;;;0.38;;
43519;SDS011;46848;51.980;5.918;2024-03-02T08:45:34;1.75;;;0.30;;
43519;SDS011;46848;51.980;5.918;2024-03-02T08:48:02;1.45;;;0.40;;
43519;SDS011;46848;51.980;5.918;2024-03-02T08:50:28;2.47;;;0.70;;
43519;SDS011;46848;51.980;5.918;2024-03-02T08:52:54;1.73;;;0.35;;
43519;SDS011;46848;51.980;5.918;2024-03-02T08:55:19;2.00;;;0.55;;
43519;SDS011;46848;51.980;5.918;2024-03-02T08:57:45;1.60;;;0.50;;
43519;SDS011;46848;51.980;5.918;2024-03-02T09:00:10;3.30;;;0.60;;
43519;SDS011;46848;51.980;5.918;2024-03-02T09:02:37;1.70;;;0.50;;
43519;SDS011;46848;51.980;5.918;2024-03-02T09:05:03;2.97;;;0.80;;
43519;SDS011;46848;51.980;5.918;2024-03-02T09:07:30;4.10;;;0.95;;
43519;SDS011;46848;51.980;5.918;2024-03-02T09:09:55;2.08;;;0.80;;
43519;SDS011;46848;51.980;5.918;2024-03-02T09:12:21;4.15;;;0.80;;
43519;SDS011;46848;51.980;5.918;2024-03-02T09:14:47;5.68;;;0.80;;
43519;SDS011;46848;51.980;5.918;2024-03-02T09:17:12;2.78;;;0.75;;
43519;SDS011;46848;51.980;5.918;2024-03-02T09:19:39;2.15;;;0.60;;
43519;SDS011;46848;51.980;5.918;2024-03-02T09:22:04;3.53;;;0.60;;
43519;SDS011;46848;51.980;5.918;2024-03-02T09:24:31;4.63;;;0.65;;
43519;SDS011;46848;51.980;5.918;2024-03-02T09:26:58;2.08;;;0.70;;
43519;SDS011;46848;51.980;5.918;2024-03-02T09:29:24;3.95;;;0.80;;
43519;SDS011;46848;51.980;5.918;2024-03-02T09:31:49;1.67;;;0.40;;
43519;SDS011;46848;51.980;5.918;2024-03-02T09:34:16;4.85;;;0.70;;
43519;SDS011;46848;51.980;5.918;2024-03-02T09:36:42;1.98;;;0.52;;
43519;SDS011;46848;51.980;5.918;2024-03-02T09:39:08;3.10;;;0.60;;
43519;SDS011;46848;51.980;5.918;2024-03-02T09:41:34;2.78;;;0.52;;
43519;SDS011;46848;51.980;5.918;2024-03-02T09:44:02;4.75;;;0.73;;
43519;SDS011;46848;51.980;5.918;2024-03-02T09:46:28;1.55;;;0.50;;
43519;SDS011;46848;51.980;5.918;2024-03-02T09:48:54;3.78;;;0.70;;
43519;SDS011;46848;51.980;5.918;2024-03-02T09:51:19;4.88;;;1.00;;
43519;SDS011;46848;51.980;5.918;2024-03-02T09:53:45;4.15;;;1.05;;
43519;SDS011;46848;51.980;5.918;2024-03-02T09:56:12;2.80;;;0.75;;
43519;SDS011;46848;51.980;5.918;2024-03-02T09:58:40;2.67;;;0.70;;
43519;SDS011;46848;51.980;5.918;2024-03-02T10:01:06;3.22;;;1.05;;
43519;SDS011;46848;51.980;5.918;2024-03-02T10:03:32;1.98;;;0.52;;
43519;SDS011;46848;51.980;5.918;2024-03-02T10:06:20;2.50;;;0.57;;
43519;SDS011;46848;51.980;5.918;2024-03-02T10:08:49;2.00;;;0.50;;
43519;SDS011;46848;51.980;5.918;2024-03-02T10:11:31;2.58;;;0.57;;
43519;SDS011;46848;51.980;5.918;2024-03-02T10:14:08;2.03;;;0.55;;
43519;SDS011;46848;51.980;5.918;2024-03-02T10:16:44;3.58;;;0.55;;
43519;SDS011;46848;51.980;5.918;2024-03-02T10:19:17;6.75;;;0.90;;
43519;SDS011;46848;51.980;5.918;2024-03-02T10:21:45;3.03;;;0.63;;
43519;SDS011;46848;51.980;5.918;2024-03-02T10:24:15;1.58;;;0.43;;
43519;SDS011;46848;51.980;5.918;2024-03-02T10:26:41;3.80;;;0.65;;
43519;SDS011;46848;51.980;5.918;2024-03-02T10:29:07;2.25;;;0.47;;
43519;SDS011;46848;51.980;5.918;2024-03-02T10:31:35;1.98;;;0.63;;
43519;SDS011;46848;51.980;5.918;2024-03-02T10:34:02;2.53;;;0.50;;
43519;SDS011;46848;51.980;5.918;2024-03-02T10:36:28;2.53;;;0.60;;
43519;SDS011;46848;51.980;5.918;2024-03-02T16:45:35;2.70;;;0.90;;
43519;SDS011;46848;51.980;5.918;2024-03-02T16:48:01;3.05;;;1.10;;
43519;SDS011;46848;51.980;5.918;2024-03-02T16:50:26;2.05;;;0.82;;
43519;SDS011;46848;51.980;5.918;2024-03-02T16:52:52;3.35;;;1.50;;
43519;SDS011;46848;51.980;5.918;2024-03-02T16:55:17;3.95;;;2.00;;
43519;SDS011;46848;51.980;5.918;2024-03-02T16:57:43;4.55;;;1.42;;
43519;SDS011;46848;51.980;5.918;2024-03-02T17:00:09;3.40;;;1.30;;
43519;SDS011;46848;51.980;5.918;2024-03-02T17:02:35;3.88;;;1.15;;
43519;SDS011;46848;51.980;5.918;2024-03-02T17:05:01;3.13;;;1.30;;
43519;SDS011;46848;51.980;5.918;2024-03-02T17:07:26;3.47;;;1.10;;
43519;SDS011;46848;51.980;5.918;2024-03-02T17:09:54;4.18;;;1.05;;
43519;SDS011;46848;51.980;5.918;2024-03-02T17:12:22;2.28;;;0.90;;
43519;SDS011;46848;51.980;5.918;2024-03-02T17:14:48;2.50;;;1.02;;
43519;SDS011;46848;51.980;5.918;2024-03-02T17:17:13;2.47;;;1.00;;
43519;SDS011;46848;51.980;5.918;2024-03-02T17:19:39;3.35;;;1.08;;
43519;SDS011;46848;51.980;5.918;2024-03-02T17:22:05;2.80;;;0.90;;
43519;SDS011;46848;51.980;5.918;2024-03-02T17:24:31;3.22;;;1.02;;
43519;SDS011;46848;51.980;5.918;2024-03-02T17:26:57;3.83;;;0.90;;
43519;SDS011;46848;51.980;5.918;2024-03-02T17:29:23;3.42;;;1.20;;
43519;SDS011;46848;51.980;5.918;2024-03-02T17:31:49;2.83;;;1.10;;
43519;SDS011;46848;51.980;5.918;2024-03-02T17:34:15;3.67;;;1.63;;
43519;SDS011;46848;51.980;5.918;2024-03-02T17:36:41;3.95;;;1.50;;
43519;SDS011;46848;51.980;5.918;2024-03-02T17:39:06;1.95;;;1.05;;
43519;SDS011;46848;51.980;5.918;2024-03-02T17:41:34;2.72;;;1.55;;
43519;SDS011;46848;51.980;5.918;2024-03-02T17:44:00;4.15;;;1.48;;
43519;SDS011;46848;51.980;5.918;2024-03-02T17:46:26;3.40;;;1.48;;
43519;SDS011;46848;51.980;5.918;2024-03-02T17:48:51;4.35;;;1.90;;
43519;SDS011;46848;51.980;5.918;2024-03-02T17:51:17;3.83;;;1.45;;
43519;SDS011;46848;51.980;5.918;2024-03-02T17:53:42;4.05;;;1.40;;
43519;SDS011;46848;51.980;5.918;2024-03-02T17:56:11;4.28;;;1.73;;
43519;SDS011;46848;51.980;5.918;2024-03-02T17:58:40;4.22;;;1.60;;
43519;SDS011;46848;51.980;5.918;2024-03-02T18:01:05;5.50;;;1.92;;
43519;SDS011;46848;51.980;5.918;2024-03-02T18:03:31;3.40;;;1.73;;
43519;SDS011;46848;51.980;5.918;2024-03-02T18:05:57;3.10;;;1.58;;
43519;SDS011;46848;51.980;5.918;2024-03-02T18:08:22;3.60;;;1.40;;
43519;SDS011;46848;51.980;5.918;2024-03-02T18:10:48;4.28;;;1.40;;
43519;SDS011;46848;51.980;5.918;2024-03-02T18:13:13;2.33;;;1.35;;
43519;SDS011;46848;51.980;5.918;2024-03-02T18:15:40;3.03;;;1.23;;
43519;SDS011;46848;51.980;5.918;2024-03-02T18:18:05;4.70;;;1.50;;
43519;SDS011;46848;51.980;5.918;2024-03-02T18:20:32;2.63;;;1.35;;
43519;SDS011;46848;51.980;5.918;2024-03-02T18:23:01;3.47;;;1.63;;
43519;SDS011;46848;51.980;5.918;2024-03-02T18:25:26;3.92;;;1.48;;
43519;SDS011;46848;51.980;5.918;2024-03-02T18:27:52;4.05;;;1.73;;
43519;SDS011;46848;51.980;5.918;2024-03-02T18:30:18;4.47;;;1.55;;
43519;SDS011;46848;51.980;5.918;2024-03-02T18:32:44;3.30;;;1.60;;
43519;SDS011;46848;51.980;5.918;2024-03-02T18:35:09;3.13;;;1.50;;
43519;SDS011;46848;51.980;5.918;2024-03-02T18:37:35;3.92;;;1.95;;
43519;SDS011;46848;51.980;5.918;2024-03-02T18:40:02;4.15;;;1.80;;
43519;SDS011;46848;51.980;5.918;2024-03-02T18:42:30;6.00;;;1.90;;
43519;SDS011;46848;51.980;5.918;2024-03-02T18:44:58;4.63;;;1.88;;
43519;SDS011;46848;51.980;5.918;2024-03-02T18:47:25;3.03;;;1.45;;
43519;SDS011;46848;51.980;5.918;2024-03-02T18:49:51;4.22;;;1.60;;
43519;SDS011;46848;51.980;5.918;2024-03-02T18:52:20;4.53;;;1.50;;
43519;SDS011;46848;51.980;5.918;2024-03-02T18:54:46;4.55;;;1.30;;
43519;SDS011;46848;51.980;5.918;2024-03-02T18:57:12;2.80;;;1.45;;
43519;SDS011;46848;51.980;5.918;2024-03-02T18:59:37;6.60;;;2.25;;
43519;SDS011;46848;51.980;5.918;2024-03-02T19:02:03;3.58;;;1.60;;
43519;SDS011;46848;51.980;5.918;2024-03-02T19:04:29;3.70;;;1.50;;
43519;SDS011;46848;51.980;5.918;2024-03-02T19:06:55;2.63;;;1.20;;
43519;SDS011;46848;51.980;5.918;2024-03-02T19:09:20;3.45;;;1.58;;
43519;SDS011;46848;51.980;5.918;2024-03-02T19:11:46;4.32;;;1.30;;
43519;SDS011;46848;51.980;5.918;2024-03-02T19:14:12;3.85;;;1.73;;
43519;SDS011;46848;51.980;5.918;2024-03-02T19:16:37;4.15;;;1.63;;
43519;SDS011;46848;51.980;5.918;2024-03-02T19:19:03;4.30;;;1.80;;
43519;SDS011;46848;51.980;5.918;2024-03-02T19:21:29;3.08;;;1.10;;
43519;SDS011;46848;51.980;5.918;2024-03-02T19:23:54;4.20;;;1.50;;
43519;SDS011;46848;51.980;5.918;2024-03-02T19:26:20;4.03;;;1.42;;
43519;SDS011;46848;51.980;5.918;2024-03-02T19:28:45;2.88;;;1.27;;
43519;SDS011;46848;51.980;5.918;2024-03-02T19:31:12;3.83;;;1.75;;
43519;SDS011;46848;51.980;5.918;2024-03-02T19:33:38;3.65;;;1.63;;
43519;SDS011;46848;51.980;5.918;2024-03-02T19:36:04;3.03;;;1.40;;
43519;SDS011;46848;51.980;5.918;2024-03-02T19:38:29;4.53;;;1.55;;
43519;SDS011;46848;51.980;5.918;2024-03-02T19:40:58;3.35;;;1.65;;
43519;SDS011;46848;51.980;5.918;2024-03-02T19:43:24;3.20;;;1.55;;
43519;SDS011;46848;51.980;5.918;2024-03-02T19:45:50;3.95;;;1.85;;
43519;SDS011;46848;51.980;5.918;2024-03-02T19:48:15;2.50;;;1.50;;
43519;SDS011;46848;51.980;5.918;2024-03-02T19:50:42;3.50;;;1.45;;
43519;SDS011;46848;51.980;5.918;2024-03-02T19:53:08;5.82;;;2.03;;
43519;SDS011;46848;51.980;5.918;2024-03-02T19:55:34;4.50;;;2.25;;
43519;SDS011;46848;51.980;5.918;2024-03-02T19:58:01;5.95;;;2.00;;
43519;SDS011;46848;51.980;5.918;2024-03-02T20:00:27;5.10;;;1.90;;
43519;SDS011;46848;51.980;5.918;2024-03-02T20:02:53;5.18;;;1.92;;
43519;SDS011;46848;51.980;5.918;2024-03-02T20:05:18;5.15;;;1.90;;
43519;SDS011;46848;51.980;5.918;2024-03-02T20:07:44;4.15;;;1.85;;
43519;SDS011;46848;51.980;5.918;2024-03-02T20:10:10;3.63;;;1.50;;
43519;SDS011;46848;51.980;5.918;2024-03-02T20:12:36;2.72;;;1.15;;
43519;SDS011;46848;51.980;5.918;2024-03-02T20:15:02;4.38;;;1.50;;
43519;SDS011;46848;51.980;5.918;2024-03-02T20:17:29;3.95;;;1.65;;
43519;SDS011;46848;51.980;5.918;2024-03-02T20:19:54;3.40;;;1.63;;
43519;SDS011;46848;51.980;5.918;2024-03-02T20:22:20;4.72;;;1.58;;
43519;SDS011;46848;51.980;5.918;2024-03-02T20:24:46;4.50;;;1.90;;
43519;SDS011;46848;51.980;5.918;2024-03-02T20:27:12;3.55;;;1.60;;
43519;SDS011;46848;51.980;5.918;2024-03-02T20:29:38;4.43;;;1.73;;
43519;SDS011;46848;51.980;5.918;2024-03-02T20:32:04;3.58;;;1.30;;
43519;SDS011;46848;51.980;5.918;2024-03-02T20:34:30;3.08;;;1.33;;
43519;SDS011;46848;51.980;5.918;2024-03-02T20:36:55;2.97;;;1.25;;
43519;SDS011;46848;51.980;5.918;2024-03-02T20:39:21;3.33;;;1.40;;
43519;SDS011;46848;51.980;5.918;2024-03-02T20:41:48;3.08;;;1.45;;
43519;SDS011;46848;51.980;5.918;2024-03-02T20:44:13;2.80;;;1.48;;
43519;SDS011;46848;51.980;5.918;2024-03-02T20:46:42;3.30;;;1.65;;
43519;SDS011;46848;51.980;5.918;2024-03-02T20:49:09;3.08;;;1.40;;
43519;SDS011;46848;51.980;5.918;2024-03-02T20:51:35;3.72;;;1.35;;